MOL Explorer — 3EKT8 — position and weather

sailwx.info

Track history (hours):
 
Tides and Currents Weather Stations Pressure Air Temp Water Temp Dewpoint Dewpoint Depression Visibility Wind Speed Wind Dir Waves Ship Positions

MOL Explorer

Last reported at 2017-Oct-17 11:50 UTC. Time now 2017-Oct-17 19:16 UTC.
Position N 21°55' E 114°49'.

Length 293 m; draft 10.5 m.

Type: Ship (hazmat cat A). MMSI: 372827000.

Date/timePositionNaut miles runAvg speedWind from/ knotsBaromVisibWave heightAir tempDewpointWater temp
2017-Oct-17 11:50N 21°55' E 114°49'2515.9
2017-Oct-17 10:16N 22°09' E 115°11'515.9
2017-Oct-17 09:58N 22°12' E 115°16'  
2017-Oct-13 13:30N 34°45' E 139°34'816.0
2017-Oct-13 13:00N 34°52' E 139°37'816.1
2017-Oct-13 12:30N 34°60' E 139°39'815.4
2017-Oct-13 12:00N 35°06' E 139°44'713.1
2017-Oct-13 11:30N 35°13' E 139°46'612.4
2017-Oct-13 11:00N 35°19' E 139°44'612.3
2017-Oct-13 10:30N 35°25' E 139°43'1111.6
2017-Oct-13 09:35N 35°35' E 139°48'2 0.1
2017-Oct-12 11:51N 35°36' E 139°46'2 5.1
2017-Oct-12 11:29N 35°35' E 139°48'9 8.7
2017-Oct-12 10:30N 35°26' E 139°48'510.8
2017-Oct-12 10:00N 35°27' E 139°41'0 0.5
2017-Oct-12 09:25N 35°26' E 139°41'0 0.0
2017-Oct-12 08:49N 35°26' E 139°41'0 0.0
2017-Oct-12 08:19N 35°26' E 139°41'0 0.0
2017-Oct-12 07:01N 35°26' E 139°41'0 0.0
2017-Oct-12 06:43N 35°26' E 139°41'0 0.0
2017-Oct-12 06:25N 35°26' E 139°41'0 0.0
2017-Oct-12 05:55N 35°26' E 139°41'0 0.0
2017-Oct-12 05:25N 35°26' E 139°41'0 0.0
2017-Oct-12 04:55N 35°26' E 139°41'0 0.0
2017-Oct-12 04:19N 35°26' E 139°41'0 0.0
2017-Oct-12 03:55N 35°26' E 139°41'0 0.0
2017-Oct-12 03:25N 35°26' E 139°41'0 0.0
2017-Oct-12 02:49N 35°26' E 139°41'0 0.0
2017-Oct-12 02:25N 35°26' E 139°41'0 0.0
2017-Oct-11 23:55N 35°26' E 139°41'0 0.0
2017-Oct-11 23:25N 35°26' E 139°41'0 0.0
2017-Oct-11 22:55N 35°26' E 139°41'0 0.0
2017-Oct-11 22:13N 35°26' E 139°41'0 0.4
2017-Oct-11 22:01N 35°27' E 139°41'2 3.3
2017-Oct-11 21:31N 35°26' E 139°43'4 7.5
2017-Oct-11 21:00N 35°22' E 139°43'611.8
2017-Oct-11 20:31N 35°16' E 139°46'611.9
2017-Oct-11 20:01N 35°11' E 139°47'3 6.5
2017-Oct-11 19:31N 35°07' E 139°46'611.8
2017-Oct-11 19:00N 35°02' E 139°44'612.9
2017-Oct-11 18:31N 34°56' E 139°41'814.1
2017-Oct-11 17:55N 34°48' E 139°37'237 7.3
2017-Oct-10 09:35N 33°53' E 134°58'217.8
2017-Oct-10 09:30N 33°55' E 134°58'918.3
2017-Oct-10 09:00N 34°04' E 134°58'917.4
2017-Oct-10 08:30N 34°12' E 134°58'816.2
2017-Oct-10 08:00N 34°21' E 134°60'1019.8
2017-Oct-10 07:30N 34°28' E 135°08'918.8
2017-Oct-10 07:00N 34°35' E 135°15'4 9.0
2017-Oct-10 06:30N 34°39' E 135°15'0 0.1
2017-Oct-10 05:51N 34°39' E 135°15'0 0.0
2017-Oct-10 05:27N 34°39' E 135°15'0 0.0
2017-Oct-10 04:57N 34°39' E 135°15'0 0.1
2017-Oct-10 04:27N 34°39' E 135°15'0 0.1
2017-Oct-10 03:57N 34°39' E 135°15'0 0.0
2017-Oct-10 03:21N 34°39' E 135°15'0 0.0
2017-Oct-10 02:51N 34°39' E 135°15'0 0.1
2017-Oct-10 02:27N 34°39' E 135°15'0 0.0
2017-Oct-10 01:51N 34°39' E 135°15'0 0.0
2017-Oct-10 01:27N 34°39' E 135°15'0 0.0
2017-Oct-10 00:45N 34°39' E 135°15'0 0.0
2017-Oct-10 00:27N 34°39' E 135°15'0 0.0
2017-Oct-09 23:57N 34°39' E 135°15'0 0.0
2017-Oct-09 23:27N 34°39' E 135°15'0 0.1
2017-Oct-09 23:00N 34°39' E 135°15'2 3.4
2017-Oct-09 22:30N 34°38' E 135°16'5 9.5
2017-Oct-09 22:00N 34°38' E 135°22'4 7.8
2017-Oct-09 21:30N 34°38' E 135°27'0 0.1
2017-Oct-09 15:51N 34°38' E 135°26'0 0.0
2017-Oct-09 15:21N 34°38' E 135°26'0 0.0
2017-Oct-09 14:51N 34°38' E 135°26'0 0.0
2017-Oct-09 14:21N 34°38' E 135°26'0 0.0
2017-Oct-09 13:57N 34°38' E 135°26'0 0.0
2017-Oct-09 13:21N 34°38' E 135°26'0 0.0
2017-Oct-09 12:51N 34°38' E 135°26'0 0.0
2017-Oct-09 12:27N 34°38' E 135°26'0 0.0
2017-Oct-09 11:45N 34°38' E 135°26'0 0.0
2017-Oct-09 11:03N 34°38' E 135°26'0 0.0
2017-Oct-09 10:57N 34°38' E 135°26'0 0.0
2017-Oct-09 10:21N 34°38' E 135°26'0 0.0
2017-Oct-09 09:21N 34°38' E 135°26'0 0.0
2017-Oct-09 08:57N 34°38' E 135°26'0 0.0
2017-Oct-09 08:21N 34°38' E 135°26'0 0.0
2017-Oct-09 07:51N 34°38' E 135°26'0 0.0
2017-Oct-09 07:27N 34°38' E 135°26'0 0.0
2017-Oct-09 06:57N 34°38' E 135°26'0 0.0
2017-Oct-09 06:27N 34°38' E 135°26'0 0.0
2017-Oct-09 05:51N 34°38' E 135°26'0 0.0
2017-Oct-09 05:27N 34°38' E 135°26'0 0.0
2017-Oct-09 04:45N 34°38' E 135°26'0 0.0
2017-Oct-09 04:03N 34°38' E 135°26'0 0.0
2017-Oct-09 03:45N 34°38' E 135°26'0 0.0
2017-Oct-09 03:27N 34°38' E 135°26'0 0.0
2017-Oct-09 00:57N 34°38' E 135°26'0 0.0
2017-Oct-09 00:27N 34°38' E 135°26'0 0.0
2017-Oct-08 23:57N 34°38' E 135°26'0 0.0
2017-Oct-08 23:09N 34°38' E 135°26'0 0.0
2017-Oct-08 22:57N 34°38' E 135°26'0 0.0
2017-Oct-08 22:27N 34°38' E 135°26'0 0.0
2017-Oct-08 21:57N 34°38' E 135°26'0 0.0
2017-Oct-08 21:21N 34°38' E 135°26'0 0.0
2017-Oct-08 20:57N 34°38' E 135°26'0 0.0
2017-Oct-08 20:27N 34°38' E 135°26'0 0.0
2017-Oct-08 19:57N 34°38' E 135°26'0 0.0
2017-Oct-08 19:21N 34°38' E 135°26'0 0.0
2017-Oct-08 18:57N 34°38' E 135°26'0 0.0
2017-Oct-08 18:27N 34°38' E 135°26'0 0.0
2017-Oct-08 17:51N 34°38' E 135°26'0 0.0
2017-Oct-08 17:21N 34°38' E 135°26'0 0.0
2017-Oct-08 16:57N 34°38' E 135°26'0 0.0
2017-Oct-08 10:41N 34°38' E 135°27'0 2.4
2017-Oct-08 10:31N 34°38' E 135°27'3 5.4
2017-Oct-08 10:01N 34°38' E 135°23'815.4
2017-Oct-08 09:30N 34°33' E 135°17'918.4
2017-Oct-08 09:00N 34°26' E 135°09'918.4
2017-Oct-08 08:30N 34°19' E 135°01'815.8
2017-Oct-08 08:00N 34°12' E 134°60'510.9
2017-Oct-08 07:30N 34°06' E 134°60'4 8.3
2017-Oct-08 07:00N 34°02' E 134°58'1314.8
2017-Oct-08 06:09N 33°50' E 134°55'  
Track history (hours):
 
Tides and Currents Weather Stations Pressure Air Temp Water Temp Dewpoint Dewpoint Depression Visibility Wind Speed Wind Dir Waves Ship Positions

MOL Explorer

Last reported at 2017-Oct-17 11:50 UTC. Time now 2017-Oct-17 19:16 UTC.
Position N 21°55' E 114°49'.

Length 293 m; draft 10.5 m.

Type: Ship (hazmat cat A). MMSI: 372827000.

Date/timePositionNaut miles runAvg speedWind from/ knotsBaromVisibWave heightAir tempDewpointWater temp
2017-Oct-17 11:50N 21°55' E 114°49'2515.9
2017-Oct-17 10:16N 22°09' E 115°11'515.9
2017-Oct-17 09:58N 22°12' E 115°16'  
2017-Oct-13 13:30N 34°45' E 139°34'816.0
2017-Oct-13 13:00N 34°52' E 139°37'816.1
2017-Oct-13 12:30N 34°60' E 139°39'815.4
2017-Oct-13 12:00N 35°06' E 139°44'713.1
2017-Oct-13 11:30N 35°13' E 139°46'612.4
2017-Oct-13 11:00N 35°19' E 139°44'612.3
2017-Oct-13 10:30N 35°25' E 139°43'1111.6
2017-Oct-13 09:35N 35°35' E 139°48'2 0.1
2017-Oct-12 11:51N 35°36' E 139°46'2 5.1
2017-Oct-12 11:29N 35°35' E 139°48'9 8.7
2017-Oct-12 10:30N 35°26' E 139°48'510.8
2017-Oct-12 10:00N 35°27' E 139°41'0 0.5
2017-Oct-12 09:25N 35°26' E 139°41'0 0.0
2017-Oct-12 08:49N 35°26' E 139°41'0 0.0
2017-Oct-12 08:19N 35°26' E 139°41'0 0.0
2017-Oct-12 07:01N 35°26' E 139°41'0 0.0
2017-Oct-12 06:43N 35°26' E 139°41'0 0.0
2017-Oct-12 06:25N 35°26' E 139°41'0 0.0
2017-Oct-12 05:55N 35°26' E 139°41'0 0.0
2017-Oct-12 05:25N 35°26' E 139°41'0 0.0
2017-Oct-12 04:55N 35°26' E 139°41'0 0.0
2017-Oct-12 04:19N 35°26' E 139°41'0 0.0
2017-Oct-12 03:55N 35°26' E 139°41'0 0.0
2017-Oct-12 03:25N 35°26' E 139°41'0 0.0
2017-Oct-12 02:49N 35°26' E 139°41'0 0.0
2017-Oct-12 02:25N 35°26' E 139°41'0 0.0
2017-Oct-11 23:55N 35°26' E 139°41'0 0.0
2017-Oct-11 23:25N 35°26' E 139°41'0 0.0
2017-Oct-11 22:55N 35°26' E 139°41'0 0.0
2017-Oct-11 22:13N 35°26' E 139°41'0 0.4
2017-Oct-11 22:01N 35°27' E 139°41'2 3.3
2017-Oct-11 21:31N 35°26' E 139°43'4 7.5
2017-Oct-11 21:00N 35°22' E 139°43'611.8
2017-Oct-11 20:31N 35°16' E 139°46'611.9
2017-Oct-11 20:01N 35°11' E 139°47'3 6.5
2017-Oct-11 19:31N 35°07' E 139°46'611.8
2017-Oct-11 19:00N 35°02' E 139°44'612.9
2017-Oct-11 18:31N 34°56' E 139°41'814.1
2017-Oct-11 17:55N 34°48' E 139°37'237 7.3
2017-Oct-10 09:35N 33°53' E 134°58'217.8
2017-Oct-10 09:30N 33°55' E 134°58'918.3
2017-Oct-10 09:00N 34°04' E 134°58'917.4
2017-Oct-10 08:30N 34°12' E 134°58'816.2
2017-Oct-10 08:00N 34°21' E 134°60'1019.8
2017-Oct-10 07:30N 34°28' E 135°08'918.8
2017-Oct-10 07:00N 34°35' E 135°15'4 9.0
2017-Oct-10 06:30N 34°39' E 135°15'0 0.1
2017-Oct-10 05:51N 34°39' E 135°15'0 0.0
2017-Oct-10 05:27N 34°39' E 135°15'0 0.0
2017-Oct-10 04:57N 34°39' E 135°15'0 0.1
2017-Oct-10 04:27N 34°39' E 135°15'0 0.1
2017-Oct-10 03:57N 34°39' E 135°15'0 0.0
2017-Oct-10 03:21N 34°39' E 135°15'0 0.0
2017-Oct-10 02:51N 34°39' E 135°15'0 0.1
2017-Oct-10 02:27N 34°39' E 135°15'0 0.0
2017-Oct-10 01:51N 34°39' E 135°15'0 0.0
2017-Oct-10 01:27N 34°39' E 135°15'0 0.0
2017-Oct-10 00:45N 34°39' E 135°15'0 0.0
2017-Oct-10 00:27N 34°39' E 135°15'0 0.0
2017-Oct-09 23:57N 34°39' E 135°15'0 0.0
2017-Oct-09 23:27N 34°39' E 135°15'0 0.1
2017-Oct-09 23:00N 34°39' E 135°15'2 3.4
2017-Oct-09 22:30N 34°38' E 135°16'5 9.5
2017-Oct-09 22:00N 34°38' E 135°22'4 7.8
2017-Oct-09 21:30N 34°38' E 135°27'0 0.1
2017-Oct-09 15:51N 34°38' E 135°26'0 0.0
2017-Oct-09 15:21N 34°38' E 135°26'0 0.0
2017-Oct-09 14:51N 34°38' E 135°26'0 0.0
2017-Oct-09 14:21N 34°38' E 135°26'0 0.0
2017-Oct-09 13:57N 34°38' E 135°26'0 0.0
2017-Oct-09 13:21N 34°38' E 135°26'0 0.0
2017-Oct-09 12:51N 34°38' E 135°26'0 0.0
2017-Oct-09 12:27N 34°38' E 135°26'0 0.0
2017-Oct-09 11:45N 34°38' E 135°26'0 0.0
2017-Oct-09 11:03N 34°38' E 135°26'0 0.0
2017-Oct-09 10:57N 34°38' E 135°26'0 0.0
2017-Oct-09 10:21N 34°38' E 135°26'0 0.0
2017-Oct-09 09:21N 34°38' E 135°26'0 0.0
2017-Oct-09 08:57N 34°38' E 135°26'0 0.0
2017-Oct-09 08:21N 34°38' E 135°26'0 0.0
2017-Oct-09 07:51N 34°38' E 135°26'0 0.0
2017-Oct-09 07:27N 34°38' E 135°26'0 0.0
2017-Oct-09 06:57N 34°38' E 135°26'0 0.0
2017-Oct-09 06:27N 34°38' E 135°26'0 0.0
2017-Oct-09 05:51N 34°38' E 135°26'0 0.0
2017-Oct-09 05:27N 34°38' E 135°26'0 0.0
2017-Oct-09 04:45N 34°38' E 135°26'0 0.0
2017-Oct-09 04:03N 34°38' E 135°26'0 0.0
2017-Oct-09 03:45N 34°38' E 135°26'0 0.0
2017-Oct-09 03:27N 34°38' E 135°26'0 0.0
2017-Oct-09 00:57N 34°38' E 135°26'0 0.0
2017-Oct-09 00:27N 34°38' E 135°26'0 0.0
2017-Oct-08 23:57N 34°38' E 135°26'0 0.0
2017-Oct-08 23:09N 34°38' E 135°26'0 0.0
2017-Oct-08 22:57N 34°38' E 135°26'0 0.0
2017-Oct-08 22:27N 34°38' E 135°26'0 0.0
2017-Oct-08 21:57N 34°38' E 135°26'0 0.0
2017-Oct-08 21:21N 34°38' E 135°26'0 0.0
2017-Oct-08 20:57N 34°38' E 135°26'0 0.0
2017-Oct-08 20:27N 34°38' E 135°26'0 0.0
2017-Oct-08 19:57N 34°38' E 135°26'0 0.0
2017-Oct-08 19:21N 34°38' E 135°26'0 0.0
2017-Oct-08 18:57N 34°38' E 135°26'0 0.0
2017-Oct-08 18:27N 34°38' E 135°26'0 0.0
2017-Oct-08 17:51N 34°38' E 135°26'0 0.0
2017-Oct-08 17:21N 34°38' E 135°26'0 0.0
2017-Oct-08 16:57N 34°38' E 135°26'0 0.0
2017-Oct-08 10:41N 34°38' E 135°27'0 2.4
2017-Oct-08 10:31N 34°38' E 135°27'3 5.4
2017-Oct-08 10:01N 34°38' E 135°23'815.4
2017-Oct-08 09:30N 34°33' E 135°17'918.4
2017-Oct-08 09:00N 34°26' E 135°09'918.4
2017-Oct-08 08:30N 34°19' E 135°01'815.8
2017-Oct-08 08:00N 34°12' E 134°60'510.9
2017-Oct-08 07:30N 34°06' E 134°60'4 8.3
2017-Oct-08 07:00N 34°02' E 134°58'1314.8
2017-Oct-08 06:09N 33°50' E 134°55'  

Dump ship's entire track history